sensor_id;sensor_type;location;lat;lon;timestamp;pressure;altitude;pressure_sealevel;temperature;humidity
12949;BME280;6539;49.476;8.484;2023-03-20T00:01:20;100783.47;;;12.86;75.15
12949;BME280;6539;49.476;8.484;2023-03-20T00:03:47;100780.41;;;12.81;75.33
12949;BME280;6539;49.476;8.484;2023-03-20T00:06:19;100783.22;;;12.74;76.01
12949;BME280;6539;49.476;8.484;2023-03-20T00:08:48;100781.66;;;12.73;76.10
12949;BME280;6539;49.476;8.484;2023-03-20T00:14:09;100795.44;;;12.73;75.65
12949;BME280;6539;49.476;8.484;2023-03-20T00:16:46;100795.78;;;12.75;75.76
12949;BME280;6539;49.476;8.484;2023-03-20T00:19:25;100796.75;;;12.61;76.51
12949;BME280;6539;49.476;8.484;2023-03-20T00:21:53;100795.06;;;12.71;76.16
12949;BME280;6539;49.476;8.484;2023-03-20T00:24:23;100799.44;;;12.65;76.40
12949;BME280;6539;49.476;8.484;2023-03-20T00:26:50;100796.31;;;12.63;76.38
12949;BME280;6539;49.476;8.484;2023-03-20T00:29:26;100796.28;;;12.66;76.17
12949;BME280;6539;49.476;8.484;2023-03-20T00:31:54;100795.22;;;12.57;76.04
12949;BME280;6539;49.476;8.484;2023-03-20T00:34:25;100795.97;;;12.61;76.33
12949;BME280;6539;49.476;8.484;2023-03-20T00:36:55;100797.06;;;12.67;76.13
12949;BME280;6539;49.476;8.484;2023-03-20T00:39:21;100797.88;;;12.64;75.78
12949;BME280;6539;49.476;8.484;2023-03-20T00:41:54;100809.34;;;12.59;76.21
12949;BME280;6539;49.476;8.484;2023-03-20T00:44:44;100803.38;;;12.64;75.82
12949;BME280;6539;49.476;8.484;2023-03-20T00:47:18;100807.41;;;12.56;76.14
12949;BME280;6539;49.476;8.484;2023-03-20T00:49:50;100802.72;;;12.53;76.43
12949;BME280;6539;49.476;8.484;2023-03-20T00:52:19;100797.97;;;12.53;76.24
12949;BME280;6539;49.476;8.484;2023-03-20T00:54:45;100795.59;;;12.55;76.29
12949;BME280;6539;49.476;8.484;2023-03-20T00:57:27;100791.56;;;12.67;76.06
12949;BME280;6539;49.476;8.484;2023-03-20T01:00:25;100788.38;;;12.68;75.61
12949;BME280;6539;49.476;8.484;2023-03-20T01:02:54;100800.19;;;12.69;75.92
12949;BME280;6539;49.476;8.484;2023-03-20T01:05:24;100800.63;;;12.64;75.58
12949;BME280;6539;49.476;8.484;2023-03-20T01:07:50;100804.72;;;12.49;76.37
12949;BME280;6539;49.476;8.484;2023-03-20T01:10:21;100801.94;;;12.52;76.58
12949;BME280;6539;49.476;8.484;2023-03-20T01:12:49;100805.50;;;12.53;76.49
12949;BME280;6539;49.476;8.484;2023-03-20T01:15:22;100797.56;;;12.58;76.03
12949;BME280;6539;49.476;8.484;2023-03-20T01:17:52;100806.22;;;12.57;75.81
12949;BME280;6539;49.476;8.484;2023-03-20T01:20:27;100805.00;;;12.61;75.72
12949;BME280;6539;49.476;8.484;2023-03-20T01:22:53;100803.81;;;12.62;75.89
12949;BME280;6539;49.476;8.484;2023-03-20T01:25:20;100803.78;;;12.66;75.71
12949;BME280;6539;49.476;8.484;2023-03-20T01:27:52;100804.53;;;12.66;75.45
12949;BME280;6539;49.476;8.484;2023-03-20T01:30:30;100797.94;;;12.60;75.64
12949;BME280;6539;49.476;8.484;2023-03-20T01:32:57;100807.44;;;12.52;76.06
12949;BME280;6539;49.476;8.484;2023-03-20T01:35:27;100801.13;;;12.55;76.28
12949;BME280;6539;49.476;8.484;2023-03-20T01:37:54;100805.50;;;12.53;76.36
12949;BME280;6539;49.476;8.484;2023-03-20T01:43:19;100805.34;;;12.67;75.97
12949;BME280;6539;49.476;8.484;2023-03-20T01:46:00;100804.91;;;12.68;75.82
12949;BME280;6539;49.476;8.484;2023-03-20T01:51:17;100813.66;;;12.60;75.84
12949;BME280;6539;49.476;8.484;2023-03-20T01:53:46;100819.16;;;12.60;76.20
12949;BME280;6539;49.476;8.484;2023-03-20T01:56:16;100823.09;;;12.62;76.33
12949;BME280;6539;49.476;8.484;2023-03-20T01:58:51;100825.47;;;12.60;76.21
12949;BME280;6539;49.476;8.484;2023-03-20T02:01:26;100822.28;;;12.62;76.33
12949;BME280;6539;49.476;8.484;2023-03-20T02:03:53;100826.63;;;12.63;75.90
12949;BME280;6539;49.476;8.484;2023-03-20T02:06:22;100823.91;;;12.59;75.86
12949;BME280;6539;49.476;8.484;2023-03-20T02:08:52;100823.88;;;12.63;75.95
12949;BME280;6539;49.476;8.484;2023-03-20T02:11:21;100818.72;;;12.65;76.07
12949;BME280;6539;49.476;8.484;2023-03-20T02:13:52;100820.38;;;12.59;76.56
12949;BME280;6539;49.476;8.484;2023-03-20T02:16:18;100822.75;;;12.57;76.38
12949;BME280;6539;49.476;8.484;2023-03-20T02:18:47;100828.69;;;12.52;76.60
12949;BME280;6539;49.476;8.484;2023-03-20T02:21:51;100827.16;;;12.51;76.88
12949;BME280;6539;49.476;8.484;2023-03-20T02:27:29;100827.91;;;12.55;76.53
12949;BME280;6539;49.476;8.484;2023-03-20T02:36:47;100831.50;;;12.45;76.59
12949;BME280;6539;49.476;8.484;2023-03-20T02:45:32;100824.47;;;12.40;77.34
12949;BME280;6539;49.476;8.484;2023-03-20T02:54:12;100824.56;;;12.30;78.16
12949;BME280;6539;49.476;8.484;2023-03-20T02:56:58;100826.88;;;12.35;77.80
12949;BME280;6539;49.476;8.484;2023-03-20T03:02:48;100833.88;;;12.46;77.21
12949;BME280;6539;49.476;8.484;2023-03-20T03:05:25;100833.88;;;12.43;77.83
12949;BME280;6539;49.476;8.484;2023-03-20T03:07:55;100832.28;;;12.45;77.59
12949;BME280;6539;49.476;8.484;2023-03-20T03:10:29;100838.97;;;12.48;77.28
12949;BME280;6539;49.476;8.484;2023-03-20T03:13:01;100838.22;;;12.44;77.64
12949;BME280;6539;49.476;8.484;2023-03-20T03:15:40;100837.38;;;12.47;77.57
12949;BME280;6539;49.476;8.484;2023-03-20T03:18:14;100836.22;;;12.48;77.50
12949;BME280;6539;49.476;8.484;2023-03-20T03:20:47;100838.53;;;12.53;77.41
12949;BME280;6539;49.476;8.484;2023-03-20T03:23:59;100846.47;;;12.44;77.48
12949;BME280;6539;49.476;8.484;2023-03-20T03:26:30;100841.69;;;12.51;77.11
12949;BME280;6539;49.476;8.484;2023-03-20T03:29:05;100842.16;;;12.43;77.15
12949;BME280;6539;49.476;8.484;2023-03-20T03:31:37;100836.34;;;12.30;77.96
12949;BME280;6539;49.476;8.484;2023-03-20T03:34:05;100834.41;;;12.31;78.00
12949;BME280;6539;49.476;8.484;2023-03-20T03:39:42;100827.41;;;12.22;78.92
12949;BME280;6539;49.476;8.484;2023-03-20T03:42:38;100819.44;;;12.32;78.42
12949;BME280;6539;49.476;8.484;2023-03-20T03:48:12;100823.34;;;12.34;78.28
12949;BME280;6539;49.476;8.484;2023-03-20T03:50:45;100826.88;;;12.35;78.22
12949;BME280;6539;49.476;8.484;2023-03-20T03:53:18;100819.06;;;12.30;78.30
12949;BME280;6539;49.476;8.484;2023-03-20T03:55:53;100828.16;;;12.27;78.43
12949;BME280;6539;49.476;8.484;2023-03-20T03:58:43;100827.41;;;12.22;78.56
12949;BME280;6539;49.476;8.484;2023-03-20T04:01:13;100841.56;;;12.17;79.33
12949;BME280;6539;49.476;8.484;2023-03-20T04:03:51;100836.41;;;12.27;78.76
12949;BME280;6539;49.476;8.484;2023-03-20T04:06:18;100842.25;;;12.32;78.16
12949;BME280;6539;49.476;8.484;2023-03-20T04:08:45;100850.88;;;12.38;77.99
12949;BME280;6539;49.476;8.484;2023-03-20T04:11:16;100851.63;;;12.38;77.53
12949;BME280;6539;49.476;8.484;2023-03-20T04:13:49;100849.28;;;12.37;78.22
12949;BME280;6539;49.476;8.484;2023-03-20T04:16:18;100855.53;;;12.41;78.14
12949;BME280;6539;49.476;8.484;2023-03-20T04:18:45;100859.03;;;12.45;77.76
12949;BME280;6539;49.476;8.484;2023-03-20T04:21:14;100858.28;;;12.41;77.32
12949;BME280;6539;49.476;8.484;2023-03-20T04:23:41;100860.34;;;12.30;78.23
12949;BME280;6539;49.476;8.484;2023-03-20T04:26:07;100871.34;;;12.30;78.26
12949;BME280;6539;49.476;8.484;2023-03-20T04:28:33;100864.31;;;12.29;78.34
12949;BME280;6539;49.476;8.484;2023-03-20T04:31:00;100863.47;;;12.32;78.18
12949;BME280;6539;49.476;8.484;2023-03-20T04:33:29;100861.09;;;12.34;77.93
12949;BME280;6539;49.476;8.484;2023-03-20T04:35:56;100870.53;;;12.36;77.88
12949;BME280;6539;49.476;8.484;2023-03-20T04:38:24;100860.72;;;12.32;77.95
12949;BME280;6539;49.476;8.484;2023-03-20T04:40:50;100856.44;;;12.27;78.41
12949;BME280;6539;49.476;8.484;2023-03-20T04:43:16;100856.41;;;12.31;78.19
12949;BME280;6539;49.476;8.484;2023-03-20T04:45:42;100858.78;;;12.29;78.33
12949;BME280;6539;49.476;8.484;2023-03-20T04:48:08;100865.56;;;12.20;78.60
12949;BME280;6539;49.476;8.484;2023-03-20T04:50:36;100867.53;;;12.16;79.17
12949;BME280;6539;49.476;8.484;2023-03-20T04:53:02;100862.00;;;12.20;78.89
12949;BME280;6539;49.476;8.484;2023-03-20T04:55:28;100864.41;;;12.14;79.16
12949;BME280;6539;49.476;8.484;2023-03-20T04:57:56;100869.91;;;12.18;78.97
12949;BME280;6539;49.476;8.484;2023-03-20T05:00:22;100869.16;;;12.10;79.56
12949;BME280;6539;49.476;8.484;2023-03-20T05:02:47;100867.94;;;12.15;79.36
12949;BME280;6539;49.476;8.484;2023-03-20T05:05:18;100870.66;;;12.18;78.90
12949;BME280;6539;49.476;8.484;2023-03-20T05:07:43;100869.44;;;12.23;78.80
12949;BME280;6539;49.476;8.484;2023-03-20T05:10:10;100872.19;;;12.23;78.87
12949;BME280;6539;49.476;8.484;2023-03-20T05:12:40;100869.81;;;12.25;78.72
12949;BME280;6539;49.476;8.484;2023-03-20T05:15:07;100875.31;;;12.25;78.46
12949;BME280;6539;49.476;8.484;2023-03-20T05:17:35;100870.19;;;12.27;78.38
12949;BME280;6539;49.476;8.484;2023-03-20T05:20:02;100875.75;;;12.23;78.33
12949;BME280;6539;49.476;8.484;2023-03-20T05:22:27;100881.66;;;12.18;79.22
12949;BME280;6539;49.476;8.484;2023-03-20T05:24:58;100882.81;;;12.21;78.95
12949;BME280;6539;49.476;8.484;2023-03-20T05:27:25;100880.84;;;12.25;78.77
12949;BME280;6539;49.476;8.484;2023-03-20T05:29:56;100884.38;;;12.25;78.47
12949;BME280;6539;49.476;8.484;2023-03-20T05:32:22;100886.31;;;12.29;78.24
12949;BME280;6539;49.476;8.484;2023-03-20T05:34:48;100893.00;;;12.27;78.22
12949;BME280;6539;49.476;8.484;2023-03-20T05:37:16;100884.03;;;12.20;78.94
12949;BME280;6539;49.476;8.484;2023-03-20T05:39:44;100884.50;;;12.11;79.02
12949;BME280;6539;49.476;8.484;2023-03-20T05:42:14;100880.53;;;12.12;79.14
12949;BME280;6539;49.476;8.484;2023-03-20T05:44:40;100881.72;;;12.11;78.98
12949;BME280;6539;49.476;8.484;2023-03-20T05:47:06;100866.75;;;12.16;79.38
12949;BME280;6539;49.476;8.484;2023-03-20T05:49:32;100869.09;;;12.17;79.17
12949;BME280;6539;49.476;8.484;2023-03-20T05:51:58;100861.22;;;12.19;79.01
12949;BME280;6539;49.476;8.484;2023-03-20T05:54:26;100871.44;;;12.22;78.87
12949;BME280;6539;49.476;8.484;2023-03-20T05:56:54;100865.22;;;12.11;79.37
12949;BME280;6539;49.476;8.484;2023-03-20T05:59:22;100863.63;;;12.10;79.91
12949;BME280;6539;49.476;8.484;2023-03-20T06:01:48;100866.41;;;12.10;80.23
12949;BME280;6539;49.476;8.484;2023-03-20T06:04:16;100871.91;;;12.10;80.23
12949;BME280;6539;49.476;8.484;2023-03-20T06:06:41;100876.22;;;12.08;80.10
12949;BME280;6539;49.476;8.484;2023-03-20T06:09:09;100880.56;;;12.09;80.70
12949;BME280;6539;49.476;8.484;2023-03-20T06:11:37;100893.13;;;12.10;80.17
12949;BME280;6539;49.476;8.484;2023-03-20T06:14:03;100899.06;;;12.05;80.33
12949;BME280;6539;49.476;8.484;2023-03-20T06:16:32;100900.97;;;12.15;80.02
12949;BME280;6539;49.476;8.484;2023-03-20T06:19:00;100913.13;;;12.17;80.25
12949;BME280;6539;49.476;8.484;2023-03-20T06:21:26;100902.13;;;12.17;80.14
12949;BME280;6539;49.476;8.484;2023-03-20T06:23:54;100913.19;;;12.14;80.08
12949;BME280;6539;49.476;8.484;2023-03-20T06:26:22;100903.72;;;12.15;80.26
12949;BME280;6539;49.476;8.484;2023-03-20T06:28:48;100907.25;;;12.15;80.27
12949;BME280;6539;49.476;8.484;2023-03-20T06:31:14;100909.19;;;12.18;79.72
12949;BME280;6539;49.476;8.484;2023-03-20T06:33:42;100913.53;;;12.19;79.76
12949;BME280;6539;49.476;8.484;2023-03-20T06:36:08;100910.75;;;12.19;79.69
12949;BME280;6539;49.476;8.484;2023-03-20T06:38:36;100905.63;;;12.21;80.40
12949;BME280;6539;49.476;8.484;2023-03-20T06:41:05;100914.28;;;12.23;79.71
12949;BME280;6539;49.476;8.484;2023-03-20T06:43:31;100913.09;;;12.24;79.56
12949;BME280;6539;49.476;8.484;2023-03-20T06:45:57;100921.28;;;12.32;79.15
12949;BME280;6539;49.476;8.484;2023-03-20T06:48:25;100917.00;;;12.27;79.60
12949;BME280;6539;49.476;8.484;2023-03-20T06:50:53;100927.97;;;12.34;79.51
12949;BME280;6539;49.476;8.484;2023-03-20T06:53:24;100931.94;;;12.30;79.22
12949;BME280;6539;49.476;8.484;2023-03-20T06:55:54;100937.44;;;12.30;79.35
12949;BME280;6539;49.476;8.484;2023-03-20T06:58:20;100929.66;;;12.17;79.83
12949;BME280;6539;49.476;8.484;2023-03-20T07:00:46;100930.03;;;12.19;79.84
12949;BME280;6539;49.476;8.484;2023-03-20T07:03:12;100934.41;;;12.13;80.17
12949;BME280;6539;49.476;8.484;2023-03-20T07:05:38;100933.22;;;12.11;80.74
12949;BME280;6539;49.476;8.484;2023-03-20T07:08:07;100932.03;;;12.15;80.58
12949;BME280;6539;49.476;8.484;2023-03-20T07:10:35;100933.59;;;12.16;80.28
12949;BME280;6539;49.476;8.484;2023-03-20T07:13:03;100926.53;;;12.15;80.51
12949;BME280;6539;49.476;8.484;2023-03-20T07:15:31;100929.63;;;12.21;80.83
12949;BME280;6539;49.476;8.484;2023-03-20T07:17:59;100924.13;;;12.24;80.41
12949;BME280;6539;49.476;8.484;2023-03-20T07:20:28;100920.56;;;12.24;80.43
12949;BME280;6539;49.476;8.484;2023-03-20T07:22:54;100919.84;;;12.13;80.56
12949;BME280;6539;49.476;8.484;2023-03-20T07:25:20;100926.88;;;12.21;80.51
12949;BME280;6539;49.476;8.484;2023-03-20T07:27:48;100928.03;;;12.23;80.29
12949;BME280;6539;49.476;8.484;2023-03-20T07:30:19;100926.50;;;12.22;80.26
12949;BME280;6539;49.476;8.484;2023-03-20T07:32:48;100928.03;;;12.23;80.41
12949;BME280;6539;49.476;8.484;2023-03-20T07:35:14;100935.13;;;12.21;80.42
12949;BME280;6539;49.476;8.484;2023-03-20T07:37:42;100928.50;;;12.15;80.79
12949;BME280;6539;49.476;8.484;2023-03-20T07:40:09;100924.13;;;12.24;80.88
12949;BME280;6539;49.476;8.484;2023-03-20T07:42:37;100935.84;;;12.32;79.82
12949;BME280;6539;49.476;8.484;2023-03-20T07:45:07;100938.63;;;12.29;80.07
12949;BME280;6539;49.476;8.484;2023-03-20T07:47:34;100935.16;;;12.17;80.94
12949;BME280;6539;49.476;8.484;2023-03-20T07:50:02;100943.03;;;12.15;81.33
12949;BME280;6539;49.476;8.484;2023-03-20T07:52:30;100942.22;;;12.18;80.99
12949;BME280;6539;49.476;8.484;2023-03-20T07:54:59;100943.75;;;12.27;80.75
12949;BME280;6539;49.476;8.484;2023-03-20T07:57:27;100952.03;;;12.23;81.49
12949;BME280;6539;49.476;8.484;2023-03-20T07:59:55;100954.78;;;12.27;81.40
12949;BME280;6539;49.476;8.484;2023-03-20T08:02:21;100951.53;;;12.39;80.93
12949;BME280;6539;49.476;8.484;2023-03-20T08:04:47;100957.03;;;12.39;80.85
12949;BME280;6539;49.476;8.484;2023-03-20T08:07:15;100955.50;;;12.38;80.50
12949;BME280;6539;49.476;8.484;2023-03-20T08:09:41;100957.03;;;12.39;80.52
12949;BME280;6539;49.476;8.484;2023-03-20T08:12:09;100968.81;;;12.43;80.25
12949;BME280;6539;49.476;8.484;2023-03-20T08:14:38;100959.00;;;12.42;80.33
12949;BME280;6539;49.476;8.484;2023-03-20T08:17:06;100956.63;;;12.40;80.59
12949;BME280;6539;49.476;8.484;2023-03-20T08:19:32;100958.53;;;12.50;80.23
12949;BME280;6539;49.476;8.484;2023-03-20T08:22:01;100953.84;;;12.51;80.00
12949;BME280;6539;49.476;8.484;2023-03-20T08:24:27;100959.25;;;12.58;80.58
12949;BME280;6539;49.476;8.484;2023-03-20T08:26:55;100959.22;;;12.65;79.66
12949;BME280;6539;49.476;8.484;2023-03-20T08:29:24;100960.00;;;12.65;79.38
12949;BME280;6539;49.476;8.484;2023-03-20T08:31:50;100963.59;;;12.55;79.42
12949;BME280;6539;49.476;8.484;2023-03-20T08:34:18;100967.53;;;12.58;80.00
12949;BME280;6539;49.476;8.484;2023-03-20T08:36:46;100964.31;;;12.66;78.98
12949;BME280;6539;49.476;8.484;2023-03-20T08:39:15;100972.94;;;12.72;78.76
12949;BME280;6539;49.476;8.484;2023-03-20T08:41:43;100965.44;;;12.72;79.19
12949;BME280;6539;49.476;8.484;2023-03-20T08:44:12;100972.50;;;12.77;78.69
12949;BME280;6539;49.476;8.484;2023-03-20T08:46:38;100978.00;;;12.80;78.11
12949;BME280;6539;49.476;8.484;2023-03-20T08:49:04;100975.69;;;12.72;78.77
12949;BME280;6539;49.476;8.484;2023-03-20T08:51:30;100976.88;;;12.74;79.19
12949;BME280;6539;49.476;8.484;2023-03-20T08:53:56;100981.53;;;12.81;78.43
12949;BME280;6539;49.476;8.484;2023-03-20T08:56:24;100980.38;;;12.75;78.44
12949;BME280;6539;49.476;8.484;2023-03-20T08:58:55;100987.47;;;12.76;78.91
12949;BME280;6539;49.476;8.484;2023-03-20T09:01:23;100997.66;;;12.82;78.46
12949;BME280;6539;49.476;8.484;2023-03-20T09:03:49;100994.50;;;12.84;78.63
12949;BME280;6539;49.476;8.484;2023-03-20T09:06:15;100996.81;;;12.89;78.14
12949;BME280;6539;49.476;8.484;2023-03-20T09:08:41;100998.41;;;12.86;78.42
12949;BME280;6539;49.476;8.484;2023-03-20T09:11:09;101004.34;;;12.85;78.05
12949;BME280;6539;49.476;8.484;2023-03-20T09:13:38;101002.00;;;12.80;77.64
12949;BME280;6539;49.476;8.484;2023-03-20T09:16:04;101000.03;;;12.77;77.96
12949;BME280;6539;49.476;8.484;2023-03-20T09:18:31;101003.25;;;12.72;76.97
12949;BME280;6539;49.476;8.484;2023-03-20T09:20:57;101005.94;;;12.79;76.33
12949;BME280;6539;49.476;8.484;2023-03-20T09:23:28;101009.44;;;12.86;75.75
12949;BME280;6539;49.476;8.484;2023-03-20T09:26:01;101009.84;;;12.85;75.20
12949;BME280;6539;49.476;8.484;2023-03-20T09:28:30;101005.88;;;12.89;75.10
12949;BME280;6539;49.476;8.484;2023-03-20T09:30:59;101004.19;;;12.99;75.41
12949;BME280;6539;49.476;8.484;2023-03-20T09:33:28;101010.50;;;12.96;75.91
12949;BME280;6539;49.476;8.484;2023-03-20T09:35:54;101005.75;;;13.03;75.61
12949;BME280;6539;49.476;8.484;2023-03-20T09:38:22;101015.53;;;13.12;75.33
12949;BME280;6539;49.476;8.484;2023-03-20T09:40:59;101013.91;;;13.18;75.42
12949;BME280;6539;49.476;8.484;2023-03-20T09:50:10;101019.94;;;13.46;73.58
12949;BME280;6539;49.476;8.484;2023-03-20T09:53:14;101019.94;;;13.50;72.90
12949;BME280;6539;49.476;8.484;2023-03-20T09:55:43;101015.16;;;13.54;73.16
12949;BME280;6539;49.476;8.484;2023-03-20T10:00:59;101020.09;;;13.69;71.55
12949;BME280;6539;49.476;8.484;2023-03-20T10:06:14;101022.47;;;13.67;71.41
12949;BME280;6539;49.476;8.484;2023-03-20T10:08:43;101029.19;;;13.66;70.61
12949;BME280;6539;49.476;8.484;2023-03-20T10:17:23;101021.16;;;13.79;70.48
12949;BME280;6539;49.476;8.484;2023-03-20T10:25:48;101020.13;;;14.00;69.82
12949;BME280;6539;49.476;8.484;2023-03-20T10:28:27;101027.28;;;13.97;69.71
12949;BME280;6539;49.476;8.484;2023-03-20T10:40:30;101019.50;;;13.89;70.12
12949;BME280;6539;49.476;8.484;2023-03-20T10:43:20;101016.75;;;13.89;69.95
12949;BME280;6539;49.476;8.484;2023-03-20T10:46:46;101022.16;;;13.96;70.08
12949;BME280;6539;49.476;8.484;2023-03-20T10:49:33;101013.72;;;14.10;68.65
12949;BME280;6539;49.476;8.484;2023-03-20T10:52:27;101016.03;;;14.11;67.83
12949;BME280;6539;49.476;8.484;2023-03-20T10:55:00;101011.31;;;14.12;67.69
12949;BME280;6539;49.476;8.484;2023-03-20T10:57:33;101007.34;;;14.13;67.60
12949;BME280;6539;49.476;8.484;2023-03-20T11:00:01;101017.56;;;14.16;67.57
12949;BME280;6539;49.476;8.484;2023-03-20T11:02:31;101005.59;;;14.26;66.20
12949;BME280;6539;49.476;8.484;2023-03-20T11:08:03;101005.66;;;14.79;64.96
12949;BME280;6539;49.476;8.484;2023-03-20T11:10:33;100994.84;;;15.11;63.31
12949;BME280;6539;49.476;8.484;2023-03-20T11:13:34;101005.28;;;15.47;61.71
12949;BME280;6539;49.476;8.484;2023-03-20T11:16:33;100989.00;;;15.72;60.85
12949;BME280;6539;49.476;8.484;2023-03-20T11:19:07;100990.63;;;15.69;58.50
12949;BME280;6539;49.476;8.484;2023-03-20T11:21:48;100988.44;;;15.61;58.80
12949;BME280;6539;49.476;8.484;2023-03-20T11:24:43;100985.66;;;15.61;59.02
12949;BME280;6539;49.476;8.484;2023-03-20T11:27:23;100988.91;;;15.95;57.81
12949;BME280;6539;49.476;8.484;2023-03-20T11:29:53;100988.78;;;16.38;55.50
12949;BME280;6539;49.476;8.484;2023-03-20T11:32:32;100986.91;;;16.51;53.14
12949;BME280;6539;49.476;8.484;2023-03-20T11:35:30;100982.84;;;16.55;52.02
12949;BME280;6539;49.476;8.484;2023-03-20T11:38:18;100975.53;;;16.45;50.44
12949;BME280;6539;49.476;8.484;2023-03-20T11:40:46;100971.19;;;16.44;50.40
12949;BME280;6539;49.476;8.484;2023-03-20T11:43:21;100971.41;;;16.53;50.83
12949;BME280;6539;49.476;8.484;2023-03-20T11:45:59;100967.44;;;16.87;51.36
12949;BME280;6539;49.476;8.484;2023-03-20T11:48:41;100962.34;;;17.30;50.58
12949;BME280;6539;49.476;8.484;2023-03-20T11:51:21;100963.50;;;17.45;48.14
12949;BME280;6539;49.476;8.484;2023-03-20T11:56:19;100959.03;;;16.74;49.05
12949;BME280;6539;49.476;8.484;2023-03-20T11:58:59;100965.00;;;16.56;49.57
12949;BME280;6539;49.476;8.484;2023-03-20T12:01:44;100964.06;;;16.27;50.66
12949;BME280;6539;49.476;8.484;2023-03-20T12:04:36;100958.47;;;16.11;51.31
12949;BME280;6539;49.476;8.484;2023-03-20T12:07:34;100945.16;;;16.06;51.32
12949;BME280;6539;49.476;8.484;2023-03-20T12:10:13;100951.19;;;16.01;50.93
12949;BME280;6539;49.476;8.484;2023-03-20T12:13:15;100948.47;;;16.17;50.03
12949;BME280;6539;49.476;8.484;2023-03-20T12:15:52;100948.81;;;16.19;49.92
12949;BME280;6539;49.476;8.484;2023-03-20T12:18:40;100943.44;;;16.28;49.32
12949;BME280;6539;49.476;8.484;2023-03-20T12:24:13;100934.28;;;16.15;49.52
12949;BME280;6539;49.476;8.484;2023-03-20T12:27:20;100928.75;;;16.15;49.75
12949;BME280;6539;49.476;8.484;2023-03-20T12:33:14;100927.34;;;16.39;49.84
12949;BME280;6539;49.476;8.484;2023-03-20T12:35:48;100922.00;;;16.48;49.79
12949;BME280;6539;49.476;8.484;2023-03-20T12:38:31;100914.06;;;16.66;49.15
12949;BME280;6539;49.476;8.484;2023-03-20T12:44:05;100903.66;;;16.70;47.05
12949;BME280;6539;49.476;8.484;2023-03-20T12:49:58;100905.03;;;16.78;45.59
12949;BME280;6539;49.476;8.484;2023-03-20T13:15:46;100868.81;;;16.37;45.97
12949;BME280;6539;49.476;8.484;2023-03-20T13:21:09;100871.41;;;16.93;45.79
12949;BME280;6539;49.476;8.484;2023-03-20T13:23:47;100870.22;;;17.06;45.04
12949;BME280;6539;49.476;8.484;2023-03-20T13:29:29;100873.25;;;17.12;43.33
12949;BME280;6539;49.476;8.484;2023-03-20T13:37:52;100863.59;;;16.88;43.56
12949;BME280;6539;49.476;8.484;2023-03-20T13:45:43;100848.41;;;16.63;43.40
12949;BME280;6539;49.476;8.484;2023-03-20T13:48:28;100855.41;;;16.68;43.03
12949;BME280;6539;49.476;8.484;2023-03-20T13:59:42;100846.56;;;16.41;42.27
12949;BME280;6539;49.476;8.484;2023-03-20T14:05:13;100844.78;;;16.50;42.41
12949;BME280;6539;49.476;8.484;2023-03-20T14:07:46;100844.59;;;16.57;41.29
12949;BME280;6539;49.476;8.484;2023-03-20T14:12:55;100841.47;;;16.55;40.60
12949;BME280;6539;49.476;8.484;2023-03-20T14:15:35;100836.78;;;16.52;40.83
12949;BME280;6539;49.476;8.484;2023-03-20T14:18:18;100839.97;;;16.67;40.75
12949;BME280;6539;49.476;8.484;2023-03-20T14:20:57;100836.09;;;16.64;40.80
12949;BME280;6539;49.476;8.484;2023-03-20T14:23:47;100830.91;;;16.66;40.41
12949;BME280;6539;49.476;8.484;2023-03-20T14:26:39;100820.50;;;16.70;40.27
12949;BME280;6539;49.476;8.484;2023-03-20T14:31:37;100831.59;;;16.70;39.14
12949;BME280;6539;49.476;8.484;2023-03-20T14:37:00;100830.19;;;16.46;38.58
12949;BME280;6539;49.476;8.484;2023-03-20T14:40:18;100826.16;;;16.51;38.42
12949;BME280;6539;49.476;8.484;2023-03-20T14:43:05;100825.88;;;16.45;38.39
12949;BME280;6539;49.476;8.484;2023-03-20T14:46:02;100826.22;;;16.47;37.87
12949;BME280;6539;49.476;8.484;2023-03-20T14:48:58;100837.06;;;16.58;37.88
12949;BME280;6539;49.476;8.484;2023-03-20T14:51:44;100828.75;;;16.58;37.97
12949;BME280;6539;49.476;8.484;2023-03-20T14:56:53;100832.59;;;16.76;37.65
12949;BME280;6539;49.476;8.484;2023-03-20T14:59:22;100827.41;;;16.78;38.09
12949;BME280;6539;49.476;8.484;2023-03-20T15:04:41;100833.75;;;16.63;38.00
12949;BME280;6539;49.476;8.484;2023-03-20T15:07:36;100825.97;;;16.58;38.43
12949;BME280;6539;49.476;8.484;2023-03-20T15:10:08;100830.19;;;16.46;38.32
12949;BME280;6539;49.476;8.484;2023-03-20T15:12:37;100832.97;;;16.46;38.67
12949;BME280;6539;49.476;8.484;2023-03-20T15:15:19;100835.22;;;16.35;38.06
12949;BME280;6539;49.476;8.484;2023-03-20T15:17:49;100830.63;;;16.29;38.52
12949;BME280;6539;49.476;8.484;2023-03-20T15:20:18;100831.41;;;16.13;38.65
12949;BME280;6539;49.476;8.484;2023-03-20T15:25:33;100828.81;;;16.06;38.68
12949;BME280;6539;49.476;8.484;2023-03-20T15:28:06;100831.25;;;16.04;38.75
12949;BME280;6539;49.476;8.484;2023-03-20T15:30:37;100836.84;;;16.00;38.35
12949;BME280;6539;49.476;8.484;2023-03-20T15:33:05;100837.72;;;15.97;37.92
12949;BME280;6539;49.476;8.484;2023-03-20T15:35:31;100838.94;;;15.96;37.85
12949;BME280;6539;49.476;8.484;2023-03-20T15:38:05;100832.25;;;15.94;37.66
12949;BME280;6539;49.476;8.484;2023-03-20T15:40:38;100839.09;;;15.89;37.68
12949;BME280;6539;49.476;8.484;2023-03-20T15:45:45;100840.81;;;15.83;37.31
12949;BME280;6539;49.476;8.484;2023-03-20T15:48:14;100829.75;;;15.83;37.59
12949;BME280;6539;49.476;8.484;2023-03-20T15:50:45;100836.56;;;15.79;37.59
12949;BME280;6539;49.476;8.484;2023-03-20T15:53:45;100835.50;;;15.73;38.13
12949;BME280;6539;49.476;8.484;2023-03-20T15:56:16;100835.25;;;15.67;38.48
12949;BME280;6539;49.476;8.484;2023-03-20T15:58:44;100839.72;;;15.61;38.54
12949;BME280;6539;49.476;8.484;2023-03-20T16:01:18;100835.91;;;15.55;38.50
12949;BME280;6539;49.476;8.484;2023-03-20T16:03:44;100837.53;;;15.53;38.74
12949;BME280;6539;49.476;8.484;2023-03-20T16:06:12;100830.09;;;15.50;38.14
12949;BME280;6539;49.476;8.484;2023-03-20T16:08:40;100834.41;;;15.51;38.03
12949;BME280;6539;49.476;8.484;2023-03-20T16:11:16;100832.53;;;15.48;38.17